createdAt,value
2022-08-20T00:00:30.948Z,63.60
2022-08-20T00:03:27.653Z,63.80
2022-08-20T00:05:57.727Z,64.00
2022-08-20T00:08:25.068Z,64.00
2022-08-20T00:10:55.572Z,64.20
2022-08-20T00:13:28.936Z,65.00
2022-08-20T00:15:56.038Z,64.70
2022-08-20T00:18:23.516Z,64.80
2022-08-20T00:20:52.170Z,65.10
2022-08-20T00:23:19.852Z,65.20
2022-08-20T00:25:47.652Z,65.50
2022-08-20T00:28:14.768Z,65.60
2022-08-20T00:30:42.772Z,65.90
2022-08-20T00:33:11.895Z,66.10
2022-08-20T00:35:41.420Z,66.50
2022-08-20T00:38:08.385Z,66.50
2022-08-20T00:40:39.459Z,66.60
2022-08-20T00:43:08.608Z,66.70
2022-08-20T00:45:35.870Z,66.90
2022-08-20T00:48:03.439Z,67.10
2022-08-20T00:50:34.282Z,67.20
2022-08-20T00:53:02.824Z,67.50
2022-08-20T00:55:31.722Z,67.60
2022-08-20T00:58:05.413Z,67.80
2022-08-20T01:00:33.779Z,67.90
2022-08-20T01:03:01.041Z,68.00
2022-08-20T01:05:29.873Z,68.10
2022-08-20T01:07:57.309Z,68.30
2022-08-20T01:10:29.966Z,68.40
2022-08-20T01:12:59.402Z,68.60
2022-08-20T01:15:31.010Z,68.90
2022-08-20T01:17:58.909Z,69.00
2022-08-20T01:20:28.511Z,69.10
2022-08-20T01:23:23.425Z,69.30
2022-08-20T01:25:54.958Z,69.50
2022-08-20T01:28:25.642Z,69.50
2022-08-20T01:30:53.073Z,69.80
2022-08-20T01:33:21.383Z,69.80
2022-08-20T01:35:48.697Z,70.10
2022-08-20T01:38:15.683Z,70.20
2022-08-20T01:41:00.569Z,70.30
2022-08-20T01:43:27.457Z,70.60
2022-08-20T01:45:57.274Z,70.60
2022-08-20T01:48:24.279Z,70.70
2022-08-20T01:51:14.430Z,71.00
2022-08-20T01:53:44.032Z,71.20
2022-08-20T01:56:14.317Z,71.20
2022-08-20T01:58:45.097Z,71.30
2022-08-20T02:01:46.836Z,71.40
2022-08-20T02:04:15.322Z,71.70
2022-08-20T02:06:56.638Z,71.60
2022-08-20T02:09:23.971Z,71.90
2022-08-20T02:11:53.282Z,72.00
2022-08-20T02:14:20.441Z,72.10
2022-08-20T02:16:54.688Z,72.20
2022-08-20T02:19:30.464Z,72.40
2022-08-20T02:21:58.944Z,72.60
2022-08-20T02:24:26.187Z,72.60
2022-08-20T02:26:53.100Z,73.00
2022-08-20T02:29:20.085Z,73.00
2022-08-20T02:32:24.211Z,73.20
2022-08-20T02:34:37.326Z,73.30
2022-08-20T02:37:04.882Z,73.40
2022-08-20T02:39:32.289Z,73.50
2022-08-20T02:41:59.367Z,73.60
2022-08-20T02:44:26.414Z,73.80
2022-08-20T02:46:53.671Z,73.90
2022-08-20T02:49:20.589Z,74.00
2022-08-20T02:51:47.450Z,74.20
2022-08-20T02:54:14.512Z,74.30
2022-08-20T02:56:41.658Z,75.10
2022-08-20T02:59:08.637Z,74.70
2022-08-20T03:01:39.617Z,74.80
2022-08-20T03:04:06.712Z,75.00
2022-08-20T03:06:33.764Z,75.10
2022-08-20T03:09:00.968Z,75.30
2022-08-20T03:11:27.956Z,75.40
2022-08-20T03:13:55.522Z,75.60
2022-08-20T03:16:24.514Z,75.70
2022-08-20T03:18:52.088Z,75.90
2022-08-20T03:21:19.346Z,76.10
2022-08-20T03:23:46.258Z,76.20
2022-08-20T03:26:13.543Z,76.40
2022-08-20T03:28:41.103Z,76.60
2022-08-20T03:31:08.094Z,76.80
2022-08-20T03:33:35.218Z,76.90
2022-08-20T03:36:02.265Z,77.10
2022-08-20T03:38:33.011Z,77.30
2022-08-20T03:41:01.098Z,77.40
2022-08-20T03:43:28.131Z,77.50
2022-08-20T03:45:55.226Z,77.70
2022-08-20T03:48:22.167Z,77.70
2022-08-20T03:50:50.225Z,77.90
2022-08-20T03:53:17.293Z,78.00
2022-08-20T03:55:53.723Z,78.20
2022-08-20T03:58:21.625Z,78.40
2022-08-20T04:00:58.657Z,78.50
2022-08-20T04:03:26.226Z,78.60
2022-08-20T04:05:53.125Z,78.70
2022-08-20T04:08:22.508Z,78.80
2022-08-20T04:10:49.904Z,79.00
2022-08-20T04:13:18.101Z,79.00
2022-08-20T04:15:48.406Z,79.10
2022-08-20T04:18:24.200Z,79.20
2022-08-20T04:20:51.615Z,79.30
2022-08-20T04:23:18.522Z,79.40
2022-08-20T04:25:45.639Z,79.40
2022-08-20T04:28:15.483Z,79.50
2022-08-20T04:30:43.418Z,79.70
2022-08-20T04:33:33.567Z,79.80
2022-08-20T04:36:02.992Z,79.80
2022-08-20T04:38:50.009Z,79.90
2022-08-20T04:41:22.802Z,80.00
2022-08-20T04:43:54.626Z,80.20
2022-08-20T04:46:22.512Z,80.20
2022-08-20T04:48:50.321Z,80.30
2022-08-20T04:51:18.189Z,80.40
2022-08-20T04:53:53.201Z,80.50
2022-08-20T04:56:23.881Z,80.60
2022-08-20T04:58:51.502Z,80.70
2022-08-20T05:01:18.577Z,80.80
2022-08-20T05:03:47.793Z,80.90
2022-08-20T05:06:16.091Z,80.90
2022-08-20T05:08:43.684Z,81.10
2022-08-20T05:11:33.946Z,81.10
2022-08-20T05:13:57.821Z,81.20
2022-08-20T05:16:24.886Z,81.20
2022-08-20T05:18:52.798Z,81.30
2022-08-20T05:21:20.840Z,81.30
2022-08-20T05:23:47.856Z,81.40
2022-08-20T05:26:16.141Z,81.50
2022-08-20T05:28:51.369Z,81.50
2022-08-20T05:31:30.982Z,81.60
2022-08-20T05:34:00.339Z,81.60
2022-08-20T05:36:27.125Z,81.60
2022-08-20T05:38:54.796Z,81.60
2022-08-20T05:41:27.742Z,81.60
2022-08-20T05:43:57.712Z,81.60
2022-08-20T05:46:24.654Z,81.60
2022-08-20T05:48:51.512Z,81.60
2022-08-20T05:51:18.428Z,81.70
2022-08-20T05:53:45.330Z,81.70
2022-08-20T05:56:12.176Z,81.70
2022-08-20T05:58:39.425Z,81.80
2022-08-20T06:01:06.391Z,81.80
2022-08-20T06:03:52.140Z,81.90
2022-08-20T06:06:44.947Z,81.80
2022-08-20T06:09:06.026Z,81.80
2022-08-20T06:11:37.284Z,81.70
2022-08-20T06:14:05.089Z,81.70
2022-08-20T06:16:32.268Z,81.70
2022-08-20T06:19:02.727Z,81.60
2022-08-20T06:21:30.100Z,81.60
2022-08-20T06:23:59.484Z,81.60
2022-08-20T06:26:30.190Z,81.50
2022-08-20T06:28:58.693Z,81.40
2022-08-20T06:31:26.059Z,81.30
2022-08-20T06:33:53.083Z,81.30
2022-08-20T06:36:20.834Z,81.20
2022-08-20T06:38:47.842Z,81.10
2022-08-20T06:41:14.982Z,81.00
2022-08-20T06:43:41.848Z,80.80
2022-08-20T06:46:08.805Z,80.80
2022-08-20T06:48:36.075Z,80.50
2022-08-20T06:51:06.527Z,80.50
2022-08-20T06:53:33.504Z,80.30
2022-08-20T06:56:00.576Z,80.20
2022-08-20T06:58:37.018Z,80.00
2022-08-20T07:01:09.994Z,79.90
2022-08-20T07:03:42.381Z,79.70
2022-08-20T07:06:22.300Z,79.50
2022-08-20T07:08:49.422Z,79.40
2022-08-20T07:11:16.350Z,79.30
2022-08-20T07:13:43.330Z,79.10
2022-08-20T07:16:10.265Z,79.00
2022-08-20T07:18:37.063Z,78.90
2022-08-20T07:21:04.154Z,78.80
2022-08-20T07:23:31.723Z,78.70
2022-08-20T07:25:58.736Z,78.50
2022-08-20T07:28:29.056Z,78.40
2022-08-20T07:31:16.073Z,78.30
2022-08-20T07:33:44.556Z,78.20
2022-08-20T07:36:11.867Z,78.10
2022-08-20T07:38:38.916Z,77.90
2022-08-20T07:41:13.575Z,77.80
2022-08-20T07:43:41.367Z,77.80
2022-08-20T07:46:09.281Z,77.70
2022-08-20T07:48:40.065Z,77.70
2022-08-20T07:51:07.698Z,77.60
2022-08-20T07:53:36.311Z,77.50
2022-08-20T07:56:06.112Z,77.40
2022-08-20T07:58:34.687Z,77.30
2022-08-20T08:01:02.140Z,77.20
2022-08-20T08:03:39.512Z,77.00
2022-08-20T08:06:19.928Z,76.90
2022-08-20T08:08:55.738Z,76.70
2022-08-20T08:11:23.106Z,76.50
2022-08-20T08:13:49.949Z,76.20
2022-08-20T08:16:16.913Z,76.00
2022-08-20T08:18:45.559Z,75.50
2022-08-20T08:21:13.174Z,75.20
2022-08-20T08:23:44.448Z,74.90
2022-08-20T08:26:17.853Z,74.60
2022-08-20T08:28:46.506Z,74.30
2022-08-20T08:31:13.652Z,74.00
2022-08-20T08:33:40.923Z,73.60
2022-08-20T08:36:10.870Z,73.20
2022-08-20T08:38:39.791Z,73.00
2022-08-20T08:41:17.449Z,72.60
2022-08-20T08:43:46.890Z,72.20
2022-08-20T08:46:15.125Z,71.80
2022-08-20T08:48:45.576Z,71.40
2022-08-20T08:51:13.691Z,70.90
2022-08-20T08:53:54.805Z,70.40
2022-08-20T08:56:27.506Z,69.90
2022-08-20T08:58:55.972Z,69.50
2022-08-20T09:01:54.026Z,69.20
2022-08-20T09:04:10.859Z,68.70
2022-08-20T09:06:40.373Z,68.40
2022-08-20T09:09:16.224Z,68.00
2022-08-20T09:11:53.306Z,67.60
2022-08-20T09:14:21.069Z,67.20
2022-08-20T09:16:52.438Z,66.90
2022-08-20T09:19:21.304Z,66.60
2022-08-20T09:21:48.282Z,66.40
2022-08-20T09:24:15.421Z,66.20
2022-08-20T09:26:42.451Z,65.70
2022-08-20T09:29:10.025Z,65.40
2022-08-20T09:31:38.236Z,64.90
2022-08-20T09:34:06.137Z,64.30
2022-08-20T09:36:33.368Z,63.90
2022-08-20T09:39:02.858Z,63.30
2022-08-20T09:41:31.015Z,62.90
2022-08-20T09:44:00.721Z,62.80
2022-08-20T09:46:30.593Z,62.20
2022-08-20T09:48:57.700Z,62.00
2022-08-20T09:51:24.742Z,62.00
2022-08-20T09:53:51.751Z,62.00
2022-08-20T09:56:18.658Z,62.00
2022-08-20T09:58:50.652Z,61.70
2022-08-20T10:01:19.111Z,61.30
2022-08-20T10:03:48.812Z,61.10
2022-08-20T10:06:17.884Z,61.10
2022-08-20T10:08:44.894Z,61.10
2022-08-20T10:11:12.034Z,61.10
2022-08-20T10:13:39.094Z,61.00
2022-08-20T10:16:06.353Z,60.80
2022-08-20T10:18:33.286Z,60.90
2022-08-20T10:21:00.303Z,61.10
2022-08-20T10:23:27.407Z,61.00
2022-08-20T10:25:54.381Z,60.90
2022-08-20T10:28:21.261Z,60.90
2022-08-20T10:30:48.121Z,60.50
2022-08-20T10:33:15.350Z,60.30
2022-08-20T10:35:42.455Z,60.30
2022-08-20T10:38:09.515Z,60.20
2022-08-20T10:40:36.437Z,60.20
2022-08-20T10:43:03.419Z,60.20
2022-08-20T10:45:30.482Z,60.30
2022-08-20T10:48:00.238Z,60.40
2022-08-20T10:50:30.374Z,60.00
2022-08-20T10:52:58.050Z,59.30
2022-08-20T10:55:25.336Z,59.00
2022-08-20T10:57:52.319Z,58.70
2022-08-20T11:00:19.361Z,58.40
2022-08-20T11:02:46.449Z,58.30
2022-08-20T11:05:13.493Z,58.20
2022-08-20T11:07:50.695Z,58.20
2022-08-20T11:10:30.242Z,58.10
2022-08-20T11:12:57.288Z,58.00
2022-08-20T11:15:24.396Z,57.80
2022-08-20T11:17:51.317Z,57.50
2022-08-20T11:20:19.555Z,57.20
2022-08-20T11:22:47.081Z,57.00
2022-08-20T11:25:14.355Z,56.30
2022-08-20T11:27:44.296Z,55.70
2022-08-20T11:30:13.973Z,54.60
2022-08-20T11:32:40.949Z,53.70
2022-08-20T11:35:38.287Z,53.20
2022-08-20T11:37:55.969Z,53.00
2022-08-20T11:40:23.776Z,52.90
2022-08-20T11:43:13.113Z,53.10
2022-08-20T11:45:38.011Z,52.90
2022-08-20T11:48:05.319Z,52.60
2022-08-20T11:50:32.328Z,52.40
2022-08-20T11:53:01.106Z,52.20
2022-08-20T11:55:31.006Z,52.40
2022-08-20T11:58:00.432Z,52.60
2022-08-20T12:00:32.024Z,52.70
2022-08-20T12:03:05.738Z,52.70
2022-08-20T12:05:39.941Z,52.30
2022-08-20T12:08:07.034Z,51.60
2022-08-20T12:10:34.116Z,50.80
2022-08-20T12:13:02.719Z,49.80
2022-08-20T12:15:33.153Z,48.70
2022-08-20T12:18:01.288Z,48.00
2022-08-20T12:20:28.204Z,48.00
2022-08-20T12:22:55.482Z,47.50
2022-08-20T12:25:22.512Z,47.30
2022-08-20T12:27:49.493Z,47.70
2022-08-20T12:30:19.972Z,47.70
2022-08-20T12:32:46.985Z,47.20
2022-08-20T12:35:14.716Z,47.10
2022-08-20T12:37:42.037Z,47.10
2022-08-20T12:40:17.392Z,47.20
2022-08-20T12:42:54.450Z,47.30
2022-08-20T12:45:24.017Z,47.70
2022-08-20T12:47:51.093Z,47.80
2022-08-20T12:50:21.762Z,48.00
2022-08-20T12:52:48.974Z,48.30
2022-08-20T12:55:18.081Z,48.50
2022-08-20T12:57:53.837Z,48.50
2022-08-20T13:00:24.365Z,48.50
2022-08-20T13:02:52.620Z,48.40
2022-08-20T13:05:20.257Z,48.40
2022-08-20T13:07:48.544Z,48.50
2022-08-20T13:10:30.553Z,48.80
2022-08-20T13:13:08.428Z,48.70
2022-08-20T13:15:35.428Z,48.80
2022-08-20T13:18:03.111Z,49.00
2022-08-20T13:20:31.069Z,49.00
2022-08-20T13:23:02.307Z,49.10
2022-08-20T13:25:29.194Z,49.30
2022-08-20T13:28:00.603Z,49.40
2022-08-20T13:30:27.882Z,49.40
2022-08-20T13:32:54.859Z,49.40
2022-08-20T13:35:22.326Z,49.50
2022-08-20T13:37:49.602Z,49.90
2022-08-20T13:40:16.874Z,49.10
2022-08-20T13:42:44.085Z,49.10
2022-08-20T13:45:11.238Z,49.00
2022-08-20T13:47:38.717Z,49.00
2022-08-20T13:50:17.844Z,48.90
2022-08-20T13:52:44.869Z,48.80
2022-08-20T13:55:15.525Z,48.70
2022-08-20T13:57:43.914Z,48.60
2022-08-20T14:00:13.771Z,48.30
2022-08-20T14:02:41.277Z,48.00
2022-08-20T14:05:08.644Z,47.80
2022-08-20T14:07:35.772Z,47.70
2022-08-20T14:10:08.527Z,47.80
2022-08-20T14:12:35.411Z,47.50
2022-08-20T14:15:02.310Z,47.00
2022-08-20T14:17:30.791Z,46.80
2022-08-20T14:20:01.387Z,46.90
2022-08-20T14:22:32.365Z,47.00
2022-08-20T14:25:03.737Z,47.10
2022-08-20T14:27:31.735Z,46.90
2022-08-20T14:29:58.884Z,46.90
2022-08-20T14:32:26.567Z,47.00
2022-08-20T14:34:54.243Z,46.00
2022-08-20T14:37:23.801Z,45.30
2022-08-20T14:39:52.267Z,44.80
2022-08-20T14:42:20.752Z,44.20
2022-08-20T14:44:47.998Z,44.10
2022-08-20T14:47:21.471Z,43.50
2022-08-20T14:49:49.038Z,43.70
2022-08-20T14:52:16.837Z,43.20
2022-08-20T14:54:44.199Z,43.30
2022-08-20T14:57:13.156Z,43.10
2022-08-20T14:59:41.016Z,43.00
2022-08-20T15:02:09.002Z,43.20
2022-08-20T15:04:36.363Z,43.30
2022-08-20T15:07:11.146Z,43.50
2022-08-20T15:09:40.558Z,43.50
2022-08-20T15:12:07.791Z,43.40
2022-08-20T15:14:34.856Z,43.50
2022-08-20T15:17:06.093Z,43.90
2022-08-20T15:19:33.347Z,44.60
2022-08-20T15:22:00.597Z,45.00
2022-08-20T15:24:27.875Z,45.20
2022-08-20T15:26:54.934Z,45.50
2022-08-20T15:29:23.418Z,45.70
2022-08-20T15:31:51.127Z,45.80
2022-08-20T15:34:18.533Z,45.80
2022-08-20T15:36:46.145Z,45.60
2022-08-20T15:39:13.206Z,45.80
2022-08-20T15:41:40.335Z,45.80
2022-08-20T15:44:07.383Z,45.90
2022-08-20T15:46:37.650Z,46.20
2022-08-20T15:49:08.591Z,46.30
2022-08-20T15:51:41.212Z,46.30
2022-08-20T15:54:21.514Z,46.60
2022-08-20T15:57:10.353Z,46.60
2022-08-20T16:00:14.304Z,46.70
2022-08-20T16:02:50.301Z,46.80
2022-08-20T16:05:23.169Z,46.80
2022-08-20T16:08:11.115Z,46.90
2022-08-20T16:10:48.364Z,47.10
2022-08-20T16:13:28.534Z,47.30
2022-08-20T16:15:55.633Z,47.60
2022-08-20T16:18:24.879Z,47.70
2022-08-20T16:20:52.888Z,47.90
2022-08-20T16:23:23.144Z,47.90
2022-08-20T16:25:56.017Z,47.90
2022-08-20T16:28:32.531Z,47.90
2022-08-20T16:31:02.773Z,47.70
2022-08-20T16:33:43.544Z,47.70
2022-08-20T16:36:26.944Z,47.70
2022-08-20T16:39:00.807Z,47.70
2022-08-20T16:41:32.224Z,47.90
2022-08-20T16:44:05.300Z,47.80
2022-08-20T16:46:37.945Z,47.80
2022-08-20T16:49:13.322Z,47.90
2022-08-20T16:51:51.746Z,48.00
2022-08-20T16:54:29.473Z,48.20
2022-08-20T16:57:00.626Z,48.40
2022-08-20T16:59:28.256Z,48.50
2022-08-20T17:02:10.247Z,48.50
2022-08-20T17:04:58.548Z,48.40
2022-08-20T17:07:57.311Z,48.20
2022-08-20T17:10:28.273Z,48.10
2022-08-20T17:12:56.958Z,48.30
2022-08-20T17:15:28.869Z,48.40
2022-08-20T17:17:56.038Z,48.40
2022-08-20T17:20:25.056Z,48.50
2022-08-20T17:23:09.246Z,48.70
2022-08-20T17:25:39.385Z,48.80
2022-08-20T17:28:17.066Z,49.00
2022-08-20T17:30:44.276Z,49.10
2022-08-20T17:33:35.067Z,49.40
2022-08-20T17:36:17.227Z,49.60
2022-08-20T17:38:49.259Z,49.80
2022-08-20T17:41:30.670Z,50.10
2022-08-20T17:44:21.934Z,50.40
2022-08-20T17:46:49.195Z,50.70
2022-08-20T17:49:19.512Z,51.10
2022-08-20T17:51:52.652Z,51.50
2022-08-20T17:54:28.146Z,52.00
2022-08-20T17:57:05.869Z,52.50
2022-08-20T18:00:01.443Z,52.90
2022-08-20T18:02:29.486Z,53.20
2022-08-20T18:04:56.573Z,53.50
2022-08-20T18:07:52.146Z,53.80
2022-08-20T18:10:24.175Z,54.30
2022-08-20T18:12:51.308Z,54.60
2022-08-20T18:15:24.107Z,55.00
2022-08-20T18:18:09.297Z,55.20
2022-08-20T18:20:54.626Z,55.50
2022-08-20T18:23:31.418Z,55.70
2022-08-20T18:26:05.671Z,56.10
2022-08-20T18:29:08.255Z,56.10
2022-08-20T18:31:49.330Z,56.40
2022-08-20T18:34:29.663Z,56.50
2022-08-20T18:37:01.807Z,56.60
2022-08-20T18:39:31.009Z,56.70
2022-08-20T18:42:22.297Z,57.00
2022-08-20T18:44:51.059Z,57.20
2022-08-20T18:47:22.966Z,57.30
2022-08-20T18:50:17.272Z,57.60
2022-08-20T18:52:49.563Z,57.70
2022-08-20T18:55:36.935Z,57.80
2022-08-20T18:58:08.425Z,58.10
2022-08-20T19:00:46.744Z,58.20
2022-08-20T19:03:23.518Z,58.30
2022-08-20T19:06:15.439Z,58.50
2022-08-20T19:08:49.892Z,58.70
2022-08-20T19:11:49.071Z,58.80
2022-08-20T19:14:18.763Z,59.00
2022-08-20T19:17:00.799Z,59.20
2022-08-20T19:19:32.712Z,59.40
2022-08-20T19:22:00.568Z,59.60
2022-08-20T19:24:33.049Z,59.80
2022-08-20T19:27:07.523Z,60.00
2022-08-20T19:29:46.521Z,60.20
2022-08-20T19:32:23.661Z,60.30
2022-08-20T19:35:03.041Z,60.50
2022-08-20T19:37:38.578Z,60.60
2022-08-20T19:40:39.032Z,60.70
2022-08-20T19:43:07.191Z,60.90
2022-08-20T19:45:47.889Z,61.00
2022-08-20T19:48:42.449Z,61.20
2022-08-20T19:51:09.284Z,61.40
2022-08-20T19:53:37.255Z,61.40
2022-08-20T19:56:18.780Z,61.50
2022-08-20T19:58:45.863Z,61.80
2022-08-20T20:01:20.708Z,61.90
2022-08-20T20:04:05.415Z,62.20
2022-08-20T20:06:36.200Z,62.50
2022-08-20T20:09:13.765Z,62.60
2022-08-20T20:11:49.346Z,62.80
2022-08-20T20:14:16.506Z,63.00
2022-08-20T20:16:43.377Z,63.20
2022-08-20T20:19:28.110Z,63.50
2022-08-20T20:22:18.694Z,63.70
2022-08-20T20:24:50.764Z,64.00
2022-08-20T20:27:22.334Z,64.20
2022-08-20T20:29:49.321Z,64.60
2022-08-20T20:32:23.340Z,64.80
2022-08-20T20:34:55.654Z,65.20
2022-08-20T20:37:41.586Z,65.10
2022-08-20T20:40:24.044Z,65.60
2022-08-20T20:43:06.193Z,65.80
2022-08-20T20:45:41.305Z,66.00
2022-08-20T20:48:21.891Z,66.10
2022-08-20T20:50:49.199Z,66.50
2022-08-20T20:53:25.572Z,66.60
2022-08-20T20:56:23.282Z,67.70
2022-08-20T20:58:54.369Z,67.00
2022-08-20T21:01:34.538Z,67.30
2022-08-20T21:04:09.671Z,67.60
2022-08-20T21:06:36.586Z,67.80
2022-08-20T21:09:03.877Z,68.00
2022-08-20T21:11:30.743Z,68.30
2022-08-20T21:13:57.646Z,68.70
2022-08-20T21:16:24.622Z,69.00
2022-08-20T21:18:51.581Z,69.30
2022-08-20T21:21:18.645Z,70.10
2022-08-20T21:23:45.509Z,69.70
2022-08-20T21:26:12.426Z,69.90
2022-08-20T21:28:39.992Z,70.10
2022-08-20T21:31:06.915Z,70.40
2022-08-20T21:33:33.844Z,70.60
2022-08-20T21:36:00.881Z,70.90
2022-08-20T21:38:28.323Z,71.00
2022-08-20T21:40:55.570Z,71.20
2022-08-20T21:43:25.143Z,71.50
2022-08-20T21:45:52.040Z,71.70
2022-08-20T21:48:19.460Z,71.80
2022-08-20T21:50:46.346Z,72.00
2022-08-20T21:53:13.507Z,72.20
2022-08-20T21:55:40.973Z,72.40
2022-08-20T21:58:08.306Z,72.60
2022-08-20T22:00:51.704Z,72.80
2022-08-20T22:03:20.033Z,73.00
2022-08-20T22:05:47.492Z,73.00
2022-08-20T22:08:14.511Z,73.30
2022-08-20T22:10:41.488Z,73.40
2022-08-20T22:13:08.291Z,73.50
2022-08-20T22:15:35.180Z,73.70
2022-08-20T22:18:02.183Z,73.80
2022-08-20T22:20:29.117Z,74.00
2022-08-20T22:22:56.448Z,74.20
2022-08-20T22:25:23.733Z,74.30
2022-08-20T22:27:53.719Z,74.50
2022-08-20T22:30:21.078Z,74.60
2022-08-20T22:32:51.821Z,74.70
2022-08-20T22:35:28.884Z,74.90
2022-08-20T22:37:55.941Z,75.00
2022-08-20T22:40:23.101Z,75.20
2022-08-20T22:42:50.366Z,75.20
2022-08-20T22:45:17.436Z,75.30
2022-08-20T22:47:44.458Z,75.40
2022-08-20T22:50:12.556Z,75.60
2022-08-20T22:52:39.777Z,75.70
2022-08-20T22:55:07.489Z,75.90
2022-08-20T22:57:37.178Z,75.90
2022-08-20T23:00:11.221Z,76.00
2022-08-20T23:02:38.697Z,76.20
2022-08-20T23:05:06.111Z,76.20
2022-08-20T23:07:33.456Z,76.30
2022-08-20T23:10:00.500Z,76.30
2022-08-20T23:12:27.728Z,76.50
2022-08-20T23:14:55.042Z,76.60
2022-08-20T23:17:22.351Z,76.70
2022-08-20T23:19:49.612Z,76.80
2022-08-20T23:22:17.298Z,76.90
2022-08-20T23:24:44.396Z,76.90
2022-08-20T23:27:13.415Z,77.00
2022-08-20T23:29:41.378Z,77.10
2022-08-20T23:32:08.370Z,77.20
2022-08-20T23:34:35.498Z,77.30
2022-08-20T23:37:02.546Z,77.30
2022-08-20T23:39:31.275Z,77.40
2022-08-20T23:41:58.509Z,77.50
2022-08-20T23:44:27.040Z,77.60
2022-08-20T23:47:00.476Z,77.70
2022-08-20T23:49:27.891Z,77.70
2022-08-20T23:51:55.351Z,77.70
2022-08-20T23:54:22.506Z,77.80
2022-08-20T23:56:49.598Z,77.90
2022-08-20T23:59:16.549Z,78.00
